Time;durP1;ratioP1;P1;durP2;ratioP2;P2;SDS_P1;SDS_P2;PMS_P1;PMS_P2;Temp;Humidity;BMP_temperature;BMP_pressure;BME280_temperature;BME280_humidity;BME280_pressure;Samples;Min_cycle;Max_cycle;Signal;HPM_P1;HPM_P2
2022/11/03 00:00:54;;;;;;;25.63;4.00;;;9.90;99.90;;;;;;4977871;28;20058;-93
2022/11/03 00:03:20;;;;;;;24.40;2.83;;;9.90;99.90;;;;;;4977762;28;20089;-93
2022/11/03 00:06:03;;;;;;;19.33;2.95;;;9.90;99.90;;;;;;4977560;28;20056;-94
2022/11/03 00:08:30;;;;;;;23.20;3.45;;;9.90;99.90;;;;;;4978067;28;20475;-93
2022/11/03 00:11:11;;;;;;;19.90;3.08;;;9.80;99.90;;;;;;4978100;28;20034;-94
2022/11/03 00:13:39;;;;;;;21.48;2.60;;;9.80;99.90;;;;;;4977789;28;20026;-95
2022/11/03 00:16:06;;;;;;;18.60;2.90;;;9.80;99.90;;;;;;4978213;28;20058;-94
2022/11/03 00:18:32;;;;;;;19.00;3.03;;;9.80;99.90;;;;;;4977640;28;20026;-92
2022/11/03 00:20:59;;;;;;;21.73;3.15;;;9.70;99.90;;;;;;4977646;28;20034;-94
2022/11/03 00:23:29;;;;;;;12.45;3.13;;;9.70;99.90;;;;;;4977859;28;20502;-93
2022/11/03 00:26:03;;;;;;;16.85;4.13;;;9.70;99.90;;;;;;4978069;28;20627;-93
2022/11/03 00:28:32;;;;;;;22.60;3.95;;;9.70;99.90;;;;;;4977864;28;20479;-94
2022/11/03 00:31:00;;;;;;;19.80;2.45;;;9.70;99.90;;;;;;4978515;28;20027;-95
2022/11/03 00:33:26;;;;;;;18.42;2.50;;;9.70;99.90;;;;;;4976687;28;20166;-94
2022/11/03 00:36:00;;;;;;;20.77;2.90;;;9.70;99.90;;;;;;4977914;28;20026;-94
2022/11/03 00:38:27;;;;;;;17.73;3.00;;;9.60;99.90;;;;;;4978457;28;20065;-92
2022/11/03 00:40:54;;;;;;;17.40;2.55;;;9.60;99.90;;;;;;4977022;28;20041;-94
2022/11/03 00:43:21;;;;;;;25.88;2.55;;;9.60;99.90;;;;;;4977333;28;20022;-94
2022/11/03 00:45:47;;;;;;;15.68;2.20;;;9.60;99.90;;;;;;4977012;28;20026;-93
2022/11/03 00:48:28;;;;;;;23.80;3.30;;;9.50;99.90;;;;;;4978300;28;20126;-93
2022/11/03 00:51:33;;;;;;;13.23;2.97;;;9.50;99.90;;;;;;4994184;28;20030;-93
2022/11/03 00:54:01;;;;;;;18.88;3.50;;;9.40;99.90;;;;;;4976864;28;20393;-93
2022/11/03 00:56:38;;;;;;;23.02;2.85;;;9.50;99.90;;;;;;4977168;28;20053;-93
2022/11/03 00:59:05;;;;;;;17.20;3.03;;;9.40;99.90;;;;;;4977628;28;20491;-94
2022/11/03 01:01:42;;;;;;;15.73;2.05;;;9.40;99.90;;;;;;4977356;28;20142;-93
2022/11/03 01:06:55;;;;;;;15.98;2.63;;;9.40;99.90;;;;;;4995905;28;20498;-94
2022/11/03 01:09:47;;;;;;;16.67;2.25;;;9.30;99.90;;;;;;4980865;28;20030;-94
2022/11/03 01:12:16;;;;;;;12.98;2.08;;;9.30;99.90;;;;;;4978106;28;20030;-95
2022/11/03 01:14:52;;;;;;;14.93;2.72;;;9.30;99.90;;;;;;4982366;28;20034;-94
2022/11/03 01:17:22;;;;;;;12.50;1.83;;;9.30;99.90;;;;;;4981506;28;20069;-94
2022/11/03 01:19:48;;;;;;;16.37;2.43;;;9.30;99.90;;;;;;4981255;28;20491;-95
2022/11/03 01:22:15;;;;;;;18.30;2.75;;;9.30;99.90;;;;;;4981456;28;20301;-94
2022/11/03 01:24:42;;;;;;;20.77;2.25;;;9.30;99.90;;;;;;4981641;28;20138;-94
2022/11/03 01:27:08;;;;;;;15.70;2.80;;;9.30;99.90;;;;;;4982622;28;20140;-94
2022/11/03 01:29:34;;;;;;;13.18;2.15;;;9.20;99.90;;;;;;4981743;28;20021;-93
2022/11/03 01:32:00;;;;;;;15.43;2.33;;;9.30;99.90;;;;;;4998816;28;20431;-94
2022/11/03 01:34:25;;;;;;;18.67;2.35;;;9.20;99.90;;;;;;4984724;28;20030;-92
2022/11/03 01:36:51;;;;;;;23.90;4.32;;;9.20;99.90;;;;;;4993909;28;20043;-93
2022/11/03 01:39:18;;;;;;;25.88;3.55;;;9.20;99.90;;;;;;4994176;28;20034;-95
2022/11/03 01:41:46;;;;;;;20.20;2.92;;;9.20;99.90;;;;;;4981835;28;20042;-95
2022/11/03 01:44:12;;;;;;;12.27;3.25;;;9.20;99.90;;;;;;4964919;28;20030;-95
2022/11/03 01:46:50;;;;;;;26.83;2.70;;;9.20;99.90;;;;;;4962920;28;20034;-93
2022/11/03 01:49:19;;;;;;;17.50;3.05;;;9.10;99.90;;;;;;4962083;28;20023;-92
2022/11/03 01:51:48;;;;;;;21.83;2.80;;;9.20;99.90;;;;;;4961269;28;20027;-94
2022/11/03 01:54:20;;;;;;;17.08;2.30;;;9.20;99.90;;;;;;4961565;28;20019;-95
2022/11/03 01:56:46;;;;;;;18.67;3.08;;;9.20;99.90;;;;;;4962631;28;20042;-95
2022/11/03 01:59:17;;;;;;;21.48;3.47;;;9.20;99.90;;;;;;4963200;28;20019;-93
2022/11/03 02:01:44;;;;;;;13.43;2.40;;;9.30;99.90;;;;;;4961834;28;20503;-94
2022/11/03 02:04:15;;;;;;;20.15;2.40;;;9.20;99.90;;;;;;4961830;28;20488;-93
2022/11/03 02:06:41;;;;;;;12.38;1.98;;;9.30;99.90;;;;;;4962133;28;20102;-94
2022/11/03 02:09:08;;;;;;;16.92;2.33;;;9.30;99.90;;;;;;4962510;28;20395;-94
2022/11/03 02:14:20;;;;;;;11.70;2.05;;;9.20;99.90;;;;;;4979438;28;20126;-94
2022/11/03 02:16:53;;;;;;;16.95;2.20;;;9.20;99.90;;;;;;4961566;28;20054;-92
2022/11/03 02:20:04;;;;;;;23.65;2.40;;;9.10;99.90;;;;;;4960336;28;20026;-94
2022/11/03 02:22:48;;;;;;;15.43;2.45;;;9.10;99.90;;;;;;4958033;28;20066;-93
2022/11/03 02:25:33;;;;;;;18.77;2.55;;;9.10;99.90;;;;;;4961411;28;20043;-94
2022/11/03 02:27:59;;;;;;;14.65;3.03;;;9.10;99.90;;;;;;4960159;28;20034;-93
2022/11/03 02:30:29;;;;;;;16.20;3.50;;;9.10;99.90;;;;;;4960443;28;20023;-94
2022/11/03 02:33:03;;;;;;;14.70;1.88;;;9.10;99.90;;;;;;4960852;28;20522;-94
2022/11/03 02:35:43;;;;;;;12.48;2.45;;;9.10;99.90;;;;;;4960988;28;20126;-94
2022/11/03 02:38:14;;;;;;;15.43;2.03;;;9.10;99.90;;;;;;4961308;28;20430;-92
2022/11/03 02:40:47;;;;;;;14.60;2.10;;;9.10;99.90;;;;;;4962125;28;20115;-95
2022/11/03 02:43:15;;;;;;;16.92;2.13;;;9.00;99.90;;;;;;4960952;28;20031;-95
2022/11/03 02:45:43;;;;;;;16.10;2.00;;;9.10;99.90;;;;;;4960236;28;20072;-95
2022/11/03 02:48:11;;;;;;;18.17;2.97;;;9.10;99.90;;;;;;4959987;28;20061;-93
2022/11/03 02:50:37;;;;;;;10.15;2.10;;;9.10;99.90;;;;;;4960853;28;20023;-93
2022/11/03 02:53:02;;;;;;;16.80;2.28;;;9.10;99.90;;;;;;4960400;28;20038;-95
2022/11/03 02:55:39;;;;;;;16.38;2.25;;;9.10;99.90;;;;;;4962899;28;20029;-94
2022/11/03 02:58:24;;;;;;;15.07;2.20;;;9.10;99.90;;;;;;4961978;28;20045;-94
2022/11/03 03:00:58;;;;;;;19.02;2.88;;;9.00;99.90;;;;;;4960332;28;20030;-94
2022/11/03 03:03:46;;;;;;;21.80;2.10;;;9.00;99.90;;;;;;4974043;28;20088;-93
2022/11/03 03:06:19;;;;;;;16.23;1.88;;;9.00;99.90;;;;;;4980223;28;20049;-94
2022/11/03 03:08:49;;;;;;;15.48;3.33;;;9.00;99.90;;;;;;4979358;28;20533;-95
2022/11/03 03:11:15;;;;;;;17.25;2.80;;;9.00;99.90;;;;;;4978948;28;20031;-94
2022/11/03 03:13:42;;;;;;;14.82;2.10;;;9.00;99.90;;;;;;4978144;28;20040;-94
2022/11/03 03:16:15;;;;;;;18.65;2.80;;;9.00;99.90;;;;;;4979014;28;20030;-93
2022/11/03 03:18:42;;;;;;;19.35;2.80;;;9.00;99.90;;;;;;4978185;28;20054;-93
2022/11/03 03:21:15;;;;;;;14.20;2.60;;;8.90;99.90;;;;;;4978194;28;20049;-94
2022/11/03 03:23:49;;;;;;;16.30;2.28;;;8.90;99.90;;;;;;4977422;28;20018;-93
2022/11/03 03:26:29;;;;;;;18.48;2.60;;;8.90;99.90;;;;;;4977677;28;20038;-94
2022/11/03 03:29:04;;;;;;;11.63;1.60;;;8.90;99.90;;;;;;4977728;28;20037;-93
2022/11/03 03:31:34;;;;;;;20.08;2.92;;;8.90;99.90;;;;;;4977306;28;20065;-94
2022/11/03 03:34:00;;;;;;;23.45;2.55;;;8.90;99.90;;;;;;4974684;28;20034;-94
2022/11/03 03:36:28;;;;;;;17.45;2.28;;;8.80;99.90;;;;;;4995396;28;20026;-93
2022/11/03 03:38:58;;;;;;;24.13;2.38;;;8.80;99.90;;;;;;4979087;28;20030;-93
2022/11/03 03:41:26;;;;;;;12.88;2.55;;;8.80;99.90;;;;;;4982136;28;20437;-92
2022/11/03 03:43:55;;;;;;;16.35;2.10;;;8.80;99.90;;;;;;4989814;28;20056;-92
2022/11/03 03:46:25;;;;;;;20.92;2.53;;;8.80;99.90;;;;;;4983815;28;20026;-92
2022/11/03 03:48:51;;;;;;;27.55;4.28;;;8.80;99.90;;;;;;4977183;28;20105;-92
2022/11/03 03:51:21;;;;;;;26.95;3.00;;;8.70;99.90;;;;;;4977242;28;20172;-92
2022/11/03 03:53:52;;;;;;;11.82;2.03;;;8.70;99.90;;;;;;4977313;28;20234;-92
2022/11/03 03:56:27;;;;;;;16.60;2.30;;;8.70;99.90;;;;;;4978146;28;20110;-95
2022/11/03 03:58:52;;;;;;;18.75;2.30;;;8.70;99.90;;;;;;4977017;28;20023;-92
2022/11/03 04:01:18;;;;;;;17.35;2.38;;;8.70;99.90;;;;;;4977367;28;20479;-92
2022/11/03 04:03:43;;;;;;;17.10;2.28;;;8.70;99.90;;;;;;4977641;28;20467;-92
2022/11/03 04:06:09;;;;;;;18.20;2.92;;;8.60;99.90;;;;;;4977330;28;20121;-91
2022/11/03 04:08:35;;;;;;;27.92;2.97;;;8.60;99.90;;;;;;4976198;28;20034;-94
2022/11/03 04:22:15;;;;;;;36.58;4.50;;;8.60;99.90;;;;;;4996994;28;20057;-93
2022/11/03 04:24:42;;;;;;;24.00;3.30;;;8.50;99.90;;;;;;4976801;28;20130;-94
2022/11/03 04:27:28;;;;;;;23.70;2.20;;;8.60;99.90;;;;;;4979327;28;20104;-95
2022/11/03 04:30:19;;;;;;;24.00;3.20;;;8.60;99.90;;;;;;4979274;28;20038;-94
2022/11/03 04:32:47;;;;;;;22.48;3.85;;;8.60;99.90;;;;;;4978318;28;20081;-93
2022/11/03 04:35:19;;;;;;;16.77;3.33;;;8.60;99.90;;;;;;4977437;28;20085;-94
2022/11/03 04:37:49;;;;;;;30.67;3.33;;;8.50;99.90;;;;;;4974181;28;20030;-93
2022/11/03 04:40:16;;;;;;;17.25;2.20;;;8.60;99.90;;;;;;4980171;28;20026;-94
2022/11/03 04:42:43;;;;;;;19.92;2.67;;;8.50;99.90;;;;;;4978856;28;20038;-94
2022/11/03 04:45:31;;;;;;;22.98;2.42;;;8.60;99.90;;;;;;4979766;28;20053;-94
2022/11/03 04:47:59;;;;;;;14.45;1.98;;;8.60;99.90;;;;;;4978270;28;20034;-94
2022/11/03 04:50:25;;;;;;;24.83;2.70;;;8.60;99.90;;;;;;4977898;28;20030;-93
2022/11/03 04:52:55;;;;;;;18.02;2.67;;;8.60;99.90;;;;;;4977934;28;20057;-94
2022/11/03 04:55:21;;;;;;;16.75;3.05;;;8.60;99.90;;;;;;4978814;28;20038;-93
2022/11/03 04:57:49;;;;;;;17.73;2.08;;;8.60;99.90;;;;;;4980213;28;20031;-92
2022/11/03 05:00:17;;;;;;;28.35;2.95;;;8.60;99.90;;;;;;4980279;28;20022;-94
2022/11/03 05:02:44;;;;;;;23.98;2.92;;;8.60;99.90;;;;;;4981474;28;20108;-93
2022/11/03 05:05:20;;;;;;;17.10;2.45;;;8.60;99.90;;;;;;4992705;28;20026;-94
2022/11/03 05:07:54;;;;;;;15.73;2.35;;;8.60;99.90;;;;;;4994899;28;20038;-94
2022/11/03 05:10:28;;;;;;;23.83;2.80;;;8.60;99.90;;;;;;4979200;28;20058;-92
2022/11/03 05:12:55;;;;;;;23.80;4.65;;;8.60;99.90;;;;;;4983595;28;20026;-94
2022/11/03 05:15:26;;;;;;;24.48;2.95;;;8.60;99.90;;;;;;4977192;28;20030;-94
2022/11/03 05:17:52;;;;;;;28.63;3.63;;;8.60;99.90;;;;;;4976854;28;20029;-95
2022/11/03 05:20:30;;;;;;;24.60;2.78;;;8.60;99.90;;;;;;4976752;28;20397;-94
2022/11/03 05:22:56;;;;;;;20.92;3.67;;;8.60;99.90;;;;;;4977710;28;20061;-92
2022/11/03 05:25:35;;;;;;;24.70;3.10;;;8.70;99.90;;;;;;4978598;28;20480;-94
2022/11/03 05:28:02;;;;;;;19.88;3.33;;;8.70;99.90;;;;;;4980550;28;20033;-94
2022/11/03 05:30:28;;;;;;;32.95;3.30;;;8.70;99.90;;;;;;4978695;28;20032;-94
2022/11/03 05:32:54;;;;;;;22.05;4.72;;;8.70;99.90;;;;;;4984127;28;20037;-93
2022/11/03 05:35:22;;;;;;;19.27;2.35;;;8.70;99.90;;;;;;4994645;28;20034;-93
2022/11/03 05:37:49;;;;;;;19.25;4.15;;;8.70;99.90;;;;;;4980507;28;20093;-94
2022/11/03 05:40:24;;;;;;;26.60;2.83;;;8.70;99.90;;;;;;4986765;28;20022;-94
2022/11/03 05:43:01;;;;;;;22.95;2.90;;;8.70;99.90;;;;;;4977974;28;20158;-93
2022/11/03 05:45:33;;;;;;;24.20;4.25;;;8.70;99.90;;;;;;4975481;28;20027;-94
2022/11/03 05:48:04;;;;;;;18.20;2.30;;;8.70;99.90;;;;;;4994709;28;20038;-94
2022/11/03 05:50:33;;;;;;;18.08;2.88;;;8.70;99.90;;;;;;4977181;28;20117;-94
2022/11/03 05:53:11;;;;;;;22.33;2.55;;;8.70;99.90;;;;;;4977014;28;20038;-94
2022/11/03 05:55:37;;;;;;;17.27;3.13;;;8.70;99.90;;;;;;4979381;28;20026;-94
2022/11/03 05:58:30;;;;;;;17.45;2.70;;;8.70;99.90;;;;;;4980018;28;20502;-94
2022/11/03 06:00:59;;;;;;;20.42;2.88;;;8.60;99.90;;;;;;4978288;28;20019;-93
2022/11/03 06:03:28;;;;;;;22.17;3.30;;;8.60;99.90;;;;;;4976984;28;20065;-94
2022/11/03 06:05:54;;;;;;;19.35;3.88;;;8.60;99.90;;;;;;4979800;28;20022;-94
2022/11/03 06:08:29;;;;;;;26.92;3.72;;;8.60;99.90;;;;;;4979971;28;20037;-94
2022/11/03 06:10:57;;;;;;;49.03;5.05;;;8.60;99.90;;;;;;4980752;28;20555;-94
2022/11/03 06:13:33;;;;;;;24.77;2.88;;;8.50;99.90;;;;;;4980378;28;20043;-95
2022/11/03 06:16:03;;;;;;;21.67;2.60;;;8.50;99.90;;;;;;4980995;28;20058;-94
2022/11/03 06:18:32;;;;;;;16.67;2.42;;;8.50;99.90;;;;;;4978449;28;20035;-94
2022/11/03 06:21:07;;;;;;;25.95;3.97;;;8.50;99.90;;;;;;4981391;28;20035;-94
2022/11/03 06:23:34;;;;;;;21.42;3.00;;;8.50;99.90;;;;;;4979708;28;20050;-89
2022/11/03 06:26:02;;;;;;;19.95;3.55;;;8.40;99.90;;;;;;4980176;28;20046;-94
2022/11/03 06:28:35;;;;;;;23.65;2.78;;;8.40;99.90;;;;;;4981283;28;20036;-94
2022/11/03 06:31:03;;;;;;;17.98;3.05;;;8.40;99.90;;;;;;4979894;28;20109;-94
2022/11/03 06:33:33;;;;;;;20.38;2.67;;;8.40;99.90;;;;;;4980102;28;20026;-94
2022/11/03 06:36:05;;;;;;;25.23;4.72;;;8.40;99.90;;;;;;4979844;28;20088;-94
2022/11/03 06:38:33;;;;;;;23.77;3.40;;;8.40;99.90;;;;;;4980085;28;20034;-94
2022/11/03 06:40:59;;;;;;;13.98;2.15;;;8.40;99.90;;;;;;4977869;28;20495;-95
2022/11/03 06:43:41;;;;;;;14.02;2.08;;;8.40;99.90;;;;;;4981463;28;20088;-94
2022/11/03 06:46:16;;;;;;;18.67;2.80;;;8.30;99.90;;;;;;4978561;28;20026;-94
2022/11/03 06:48:43;;;;;;;26.85;3.13;;;8.30;99.90;;;;;;4981606;28;20030;-94
2022/11/03 06:51:29;;;;;;;22.83;3.20;;;8.30;99.90;;;;;;4981428;28;20029;-94
2022/11/03 06:53:59;;;;;;;16.80;1.98;;;8.30;99.90;;;;;;4982135;28;20043;-95
2022/11/03 06:56:28;;;;;;;33.33;4.57;;;8.30;99.90;;;;;;4980384;28;20031;-94
2022/11/03 06:58:55;;;;;;;29.45;4.22;;;8.30;99.90;;;;;;4985512;28;20281;-94
2022/11/03 07:01:28;;;;;;;17.67;3.22;;;8.30;99.90;;;;;;4992587;28;20037;-92
2022/11/03 07:04:17;;;;;;;20.27;2.88;;;8.30;99.90;;;;;;5003123;28;20026;-94
2022/11/03 07:06:43;;;;;;;27.25;3.15;;;8.30;99.90;;;;;;4995992;28;20094;-94
2022/11/03 07:09:15;;;;;;;14.60;2.10;;;8.30;99.90;;;;;;4996174;28;20047;-94
2022/11/03 07:11:50;;;;;;;19.70;2.63;;;8.30;99.90;;;;;;4975196;28;20022;-95
2022/11/03 07:14:28;;;;;;;14.73;2.42;;;8.30;99.90;;;;;;4976636;28;20030;-94
2022/11/03 07:16:58;;;;;;;34.25;7.15;;;8.30;99.90;;;;;;4975382;28;20022;-94
2022/11/03 07:19:35;;;;;;;18.57;2.13;;;8.30;99.90;;;;;;4973168;28;20025;-94
2022/11/03 07:22:22;;;;;;;19.73;3.05;;;8.30;99.90;;;;;;4973077;28;20321;-95
2022/11/03 07:24:53;;;;;;;22.50;2.67;;;8.20;99.90;;;;;;4972650;28;20174;-94
2022/11/03 07:27:29;;;;;;;23.75;3.30;;;8.20;99.90;;;;;;4976756;28;20022;-94
2022/11/03 07:30:18;;;;;;;24.02;3.05;;;8.20;99.90;;;;;;4993647;28;20476;-93
2022/11/03 07:32:45;;;;;;;14.65;2.40;;;8.20;99.90;;;;;;4978232;28;20026;-93
2022/11/03 07:35:16;;;;;;;18.92;2.47;;;8.10;99.90;;;;;;4979259;28;20113;-93
2022/11/03 07:37:47;;;;;;;19.85;2.67;;;8.10;99.90;;;;;;5003234;28;20015;-93
2022/11/03 07:40:17;;;;;;;21.85;2.58;;;8.20;99.90;;;;;;4975493;28;20109;-94
2022/11/03 07:42:42;;;;;;;25.20;3.15;;;8.30;99.90;;;;;;4977770;28;20034;-91
2022/11/03 07:45:32;;;;;;;29.63;4.47;;;8.30;99.90;;;;;;5005304;28;20034;-93
2022/11/03 07:48:01;;;;;;;30.35;4.03;;;8.50;99.90;;;;;;4973289;28;20032;-94
2022/11/03 07:50:26;;;;;;;27.08;3.47;;;8.60;99.90;;;;;;4959907;28;20031;-93
2022/11/03 07:52:52;;;;;;;27.92;3.47;;;8.70;99.90;;;;;;4959525;28;20054;-94
2022/11/03 07:55:18;;;;;;;19.85;3.65;;;8.90;99.90;;;;;;4959248;28;20038;-94
2022/11/03 07:57:43;;;;;;;19.48;2.97;;;9.00;99.90;;;;;;4968326;28;20049;-95
2022/11/03 08:00:21;;;;;;;20.17;3.17;;;9.10;99.90;;;;;;4971053;28;20038;-94
2022/11/03 08:02:50;;;;;;;22.30;2.75;;;9.20;99.90;;;;;;4977412;28;20058;-93
2022/11/03 08:05:15;;;;;;;19.40;3.47;;;9.30;99.90;;;;;;4980289;28;20042;-92
2022/11/03 08:07:41;;;;;;;19.40;2.80;;;9.40;99.90;;;;;;4979522;28;20089;-94
2022/11/03 08:10:07;;;;;;;22.98;2.80;;;9.50;99.90;;;;;;4979266;28;20121;-95
2022/11/03 08:12:33;;;;;;;27.63;3.78;;;9.40;99.90;;;;;;4971705;28;20026;-94
2022/11/03 08:14:59;;;;;;;24.75;2.75;;;9.50;99.90;;;;;;4976825;28;20506;-95
2022/11/03 08:17:24;;;;;;;21.00;3.60;;;9.40;99.90;;;;;;4959950;28;20053;-94
2022/11/03 08:19:50;;;;;;;18.73;2.90;;;9.40;99.90;;;;;;4969288;28;20038;-95
2022/11/03 08:22:16;;;;;;;16.38;2.88;;;9.50;99.90;;;;;;4966560;28;20507;-94
2022/11/03 08:24:42;;;;;;;22.00;2.70;;;9.50;99.90;;;;;;4962976;28;20027;-94
2022/11/03 08:27:07;;;;;;;22.33;2.95;;;9.60;99.90;;;;;;4964286;28;20491;-94
2022/11/03 08:29:34;;;;;;;12.82;2.28;;;9.70;99.90;;;;;;4975877;28;20038;-95
2022/11/03 08:32:00;;;;;;;22.92;2.88;;;9.70;99.90;;;;;;4972762;28;20026;-96
2022/11/03 08:34:25;;;;;;;28.00;3.20;;;9.80;99.90;;;;;;4989917;28;20090;-93
2022/11/03 08:36:51;;;;;;;22.23;4.00;;;9.90;99.90;;;;;;4987988;28;20058;-94
2022/11/03 08:39:17;;;;;;;21.08;3.67;;;10.00;99.90;;;;;;4968211;28;20042;-94
2022/11/03 08:41:42;;;;;;;23.52;4.43;;;10.10;99.90;;;;;;4969088;28;20031;-94
2022/11/03 08:44:08;;;;;;;23.80;3.05;;;10.10;99.90;;;;;;4993898;28;20093;-94
2022/11/03 08:46:34;;;;;;;22.05;2.85;;;10.20;99.90;;;;;;4973861;28;20034;-94
2022/11/03 08:48:59;;;;;;;25.08;3.92;;;10.30;99.90;;;;;;4970332;28;20094;-94
2022/11/03 08:51:25;;;;;;;17.90;3.92;;;10.30;99.90;;;;;;4968654;28;20034;-94
2022/11/03 08:53:52;;;;;;;22.58;3.17;;;10.40;99.90;;;;;;4967568;28;20084;-95
2022/11/03 08:56:19;;;;;;;19.10;3.08;;;10.50;99.90;;;;;;4966608;28;20026;-94
2022/11/03 08:58:45;;;;;;;21.92;3.10;;;10.60;99.90;;;;;;4967879;28;20031;-94
2022/11/03 09:01:12;;;;;;;19.25;2.88;;;10.60;99.90;;;;;;4968449;28;20031;-93
2022/11/03 09:03:38;;;;;;;17.20;2.40;;;10.70;99.90;;;;;;4968201;28;20053;-94
2022/11/03 09:06:04;;;;;;;24.50;3.63;;;10.80;99.90;;;;;;4970498;28;20037;-94
2022/11/03 09:08:30;;;;;;;18.80;2.75;;;10.80;99.90;;;;;;4968785;28;20042;-93
2022/11/03 09:10:55;;;;;;;17.52;3.40;;;10.80;99.90;;;;;;4968213;28;20455;-95
2022/11/03 09:13:21;;;;;;;19.60;3.20;;;10.80;99.90;;;;;;4987067;28;20094;-93
2022/11/03 09:15:47;;;;;;;23.90;3.45;;;10.80;99.90;;;;;;4968352;28;20117;-94
2022/11/03 09:18:12;;;;;;;25.80;4.15;;;10.70;99.90;;;;;;4967291;28;20369;-94
2022/11/03 09:20:38;;;;;;;31.23;6.68;;;10.60;99.90;;;;;;4968706;28;20022;-93
2022/11/03 09:23:03;;;;;;;23.23;5.47;;;10.50;99.90;;;;;;4971831;28;20094;-94
2022/11/03 09:25:29;;;;;;;28.88;5.68;;;10.50;99.90;;;;;;4965572;28;20046;-94
2022/11/03 09:27:55;;;;;;;25.42;5.13;;;10.40;99.90;;;;;;4966751;28;20040;-94
2022/11/03 09:30:21;;;;;;;22.55;5.88;;;10.30;99.90;;;;;;4968772;28;20027;-94
2022/11/03 09:32:47;;;;;;;21.85;5.13;;;10.30;99.90;;;;;;4969142;28;20029;-95
2022/11/03 09:35:15;;;;;;;22.52;4.82;;;10.30;99.90;;;;;;4969775;28;20593;-95
2022/11/03 09:37:42;;;;;;;28.48;4.72;;;10.30;99.90;;;;;;4970151;28;20057;-94
2022/11/03 09:40:09;;;;;;;22.00;4.18;;;10.30;99.90;;;;;;4968134;28;20023;-95
2022/11/03 09:42:37;;;;;;;23.45;4.03;;;10.30;99.90;;;;;;4971237;28;20046;-94
2022/11/03 09:45:03;;;;;;;26.20;5.50;;;10.30;99.90;;;;;;4972115;28;20479;-94
2022/11/03 09:47:35;;;;;;;28.75;5.75;;;10.30;99.90;;;;;;4970633;28;20113;-94
2022/11/03 09:50:02;;;;;;;30.65;4.90;;;10.40;99.90;;;;;;4969844;28;20025;-95
2022/11/03 09:52:32;;;;;;;21.70;3.92;;;10.60;99.90;;;;;;4988181;28;20031;-93
2022/11/03 09:54:58;;;;;;;25.10;4.15;;;10.80;99.90;;;;;;4985109;28;20027;-94
2022/11/03 09:57:26;;;;;;;24.50;3.97;;;11.00;99.90;;;;;;4981727;28;20027;-94
2022/11/03 09:59:52;;;;;;;22.20;4.03;;;11.20;99.90;;;;;;4961042;28;20042;-94
2022/11/03 10:02:29;;;;;;;18.45;4.15;;;11.40;99.90;;;;;;4972289;28;20070;-95
2022/11/03 10:05:00;;;;;;;20.75;3.53;;;11.60;99.90;;;;;;4980082;28;20544;-93
2022/11/03 10:07:28;;;;;;;19.75;3.30;;;11.60;99.90;;;;;;4979748;28;20058;-94
2022/11/03 10:09:57;;;;;;;21.85;4.25;;;11.70;99.90;;;;;;4979569;28;20034;-94
2022/11/03 10:12:24;;;;;;;27.25;3.67;;;11.70;99.90;;;;;;4979386;28;20022;-94
2022/11/03 10:14:50;;;;;;;23.90;3.50;;;11.90;99.90;;;;;;4978679;28;20025;-93
2022/11/03 10:17:19;;;;;;;26.02;4.60;;;12.20;99.90;;;;;;4971709;28;20441;-94
2022/11/03 10:19:51;;;;;;;18.60;3.85;;;12.50;99.90;;;;;;4968447;28;20614;-94
2022/11/03 10:22:21;;;;;;;22.45;3.05;;;13.00;99.90;;;;;;4961220;28;20062;-93
2022/11/03 10:24:47;;;;;;;21.98;3.22;;;13.20;99.90;;;;;;4959874;28;20508;-94
2022/11/03 10:27:24;;;;;;;21.23;3.22;;;13.50;99.90;;;;;;4960196;28;20034;-94
2022/11/03 10:30:10;;;;;;;15.40;3.05;;;13.80;99.90;;;;;;4960742;28;20023;-95
2022/11/03 10:33:22;;;;;;;19.00;3.00;;;13.90;99.90;;;;;;4960678;28;20065;-93
2022/11/03 10:35:48;;;;;;;25.23;3.35;;;13.90;99.90;;;;;;4960693;28;20023;-94
2022/11/03 10:38:34;;;;;;;18.15;2.60;;;14.00;99.90;;;;;;4960556;28;20037;-93
2022/11/03 10:41:21;;;;;;;14.32;2.53;;;14.00;99.90;;;;;;4987172;28;20034;-94
2022/11/03 10:44:09;;;;;;;24.23;2.92;;;14.00;99.90;;;;;;4979812;28;20596;-94
2022/11/03 10:46:36;;;;;;;17.00;2.80;;;14.20;99.90;;;;;;4976789;28;20035;-93
2022/11/03 10:49:17;;;;;;;24.13;2.63;;;14.30;99.90;;;;;;4996316;28;20022;-94
2022/11/03 10:51:46;;;;;;;12.63;2.60;;;14.30;99.90;;;;;;4981699;28;20157;-94
2022/11/03 10:54:15;;;;;;;19.25;3.35;;;14.20;99.90;;;;;;4983137;28;20029;-94
2022/11/03 10:56:42;;;;;;;16.58;3.17;;;14.20;99.90;;;;;;4984039;28;20479;-95
2022/11/03 10:59:20;;;;;;;23.52;2.92;;;14.00;99.90;;;;;;4983401;28;20031;-93
2022/11/03 11:01:46;;;;;;;20.23;3.35;;;13.80;99.90;;;;;;4985531;28;20034;-94
2022/11/03 11:04:15;;;;;;;10.10;1.80;;;13.70;99.90;;;;;;4965291;28;20089;-94
2022/11/03 11:06:41;;;;;;;10.85;1.90;;;13.40;99.90;;;;;;4975937;28;20033;-93
2022/11/03 11:09:10;;;;;;;15.32;2.70;;;13.20;99.90;;;;;;4978386;28;20027;-93
2022/11/03 11:11:36;;;;;;;12.88;2.45;;;13.00;99.90;;;;;;4979900;28;20031;-92
2022/11/03 11:14:27;;;;;;;20.48;2.33;;;12.80;99.90;;;;;;4977822;28;20029;-92
2022/11/03 11:16:57;;;;;;;12.32;1.95;;;12.70;99.90;;;;;;4996408;28;20018;-91
2022/11/03 11:19:24;;;;;;;;;;;12.70;99.90;;;;;;4992586;28;20011;-91
2022/11/03 11:21:52;;;;;;;14.30;2.20;;;12.60;99.90;;;;;;4981267;28;20013;-93
2022/11/03 11:24:43;;;;;;;11.35;2.15;;;12.50;99.90;;;;;;4980435;28;20054;-92
2022/11/03 11:27:30;;;;;;;17.95;1.98;;;12.40;99.90;;;;;;4962916;28;20026;-94
2022/11/03 11:30:01;;;;;;;13.20;2.25;;;12.40;99.90;;;;;;4958781;28;20062;-92
2022/11/03 11:32:38;;;;;;;14.82;3.95;;;12.40;99.90;;;;;;4961492;28;20050;-94
2022/11/03 11:35:14;;;;;;;16.15;2.25;;;12.40;99.90;;;;;;4961836;28;20027;-89
2022/11/03 11:37:40;;;;;;;14.57;2.67;;;12.50;99.90;;;;;;4959781;28;20090;-94
2022/11/03 11:40:13;;;;;;;12.32;2.15;;;12.60;99.90;;;;;;4962763;28;20428;-93
2022/11/03 11:43:12;;;;;;;15.23;2.08;;;12.80;99.90;;;;;;4963810;28;20045;-93
2022/11/03 11:46:15;;;;;;;15.40;2.78;;;13.20;99.90;;;;;;4970271;28;20023;-93
2022/11/03 11:48:41;;;;;;;19.05;2.50;;;14.00;99.90;;;;;;4961013;28;20125;-93
2022/11/03 11:51:09;;;;;;;18.85;2.50;;;14.40;99.90;;;;;;4955488;28;20063;-94
2022/11/03 11:53:40;;;;;;;9.48;2.30;;;14.60;99.90;;;;;;4953625;28;20027;-92
2022/11/03 11:56:13;;;;;;;17.13;2.45;;;14.50;99.90;;;;;;4951667;29;20027;-92
2022/11/03 11:58:55;;;;;;;19.65;2.30;;;14.50;99.90;;;;;;4941478;29;20031;-91
2022/11/03 12:01:29;;;;;;;12.55;1.80;;;14.50;99.90;;;;;;4971772;28;20034;-91
2022/11/03 12:03:59;;;;;;;18.33;3.33;;;14.80;99.90;;;;;;4978770;28;20051;-93
2022/11/03 12:06:36;;;;;;;15.57;2.92;;;15.00;99.30;;;;;;4979753;28;20033;-92
2022/11/03 12:09:11;;;;;;;16.48;2.83;;;15.40;98.90;;;;;;4978010;28;20030;-93
2022/11/03 12:11:48;;;;;;;9.63;2.20;;;15.60;97.30;;;;;;4977870;28;20026;-93
2022/11/03 12:14:35;;;;;;;13.02;2.10;;;15.90;96.00;;;;;;4978317;28;20030;-93
2022/11/03 12:17:16;;;;;;;11.65;2.25;;;16.40;95.20;;;;;;4977569;28;20035;-92
2022/11/03 12:19:48;;;;;;;14.82;2.08;;;16.60;93.70;;;;;;4977074;28;20045;-93
2022/11/03 12:22:23;;;;;;;15.52;2.22;;;16.40;92.50;;;;;;4994791;28;20053;-92
2022/11/03 12:24:49;;;;;;;15.80;2.78;;;16.20;92.50;;;;;;4993109;28;20022;-94
2022/11/03 12:27:24;;;;;;;16.10;2.72;;;16.00;92.50;;;;;;4976358;28;20041;-93
2022/11/03 12:29:50;;;;;;;22.38;2.28;;;15.90;92.90;;;;;;4976970;28;20031;-92
2022/11/03 12:32:16;;;;;;;14.50;2.38;;;15.90;92.90;;;;;;4977045;28;20043;-92
2022/11/03 12:34:42;;;;;;;10.98;2.00;;;16.00;92.70;;;;;;4977315;28;20035;-93
2022/11/03 12:37:08;;;;;;;12.77;2.17;;;16.30;92.60;;;;;;4977514;28;20049;-93
2022/11/03 12:39:34;;;;;;;14.68;2.08;;;16.80;92.20;;;;;;4977272;28;20487;-91
2022/11/03 12:42:00;;;;;;;13.75;2.03;;;17.10;91.00;;;;;;4977218;28;20045;-92
2022/11/03 12:44:26;;;;;;;23.77;2.85;;;17.10;90.00;;;;;;4977112;28;20031;-93
2022/11/03 12:46:51;;;;;;;19.25;2.45;;;16.90;88.00;;;;;;4994174;28;20072;-93
2022/11/03 12:49:17;;;;;;;12.73;2.03;;;16.50;87.50;;;;;;4976222;28;20104;-92
2022/11/03 12:51:43;;;;;;;12.13;2.75;;;16.10;88.00;;;;;;4977136;28;20424;-93
2022/11/03 12:54:08;;;;;;;14.65;2.05;;;15.70;88.10;;;;;;4976246;28;20026;-93
2022/11/03 12:56:34;;;;;;;10.40;2.15;;;15.50;88.70;;;;;;4976682;28;20053;-93
2022/11/03 12:58:59;;;;;;;8.20;1.77;;;15.70;89.70;;;;;;4977047;28;20030;-91
2022/11/03 13:01:25;;;;;;;10.75;2.20;;;16.10;89.60;;;;;;4976684;28;20042;-91
2022/11/03 13:03:51;;;;;;;14.38;2.95;;;16.60;86.70;;;;;;4979319;28;20050;-93
2022/11/03 13:06:17;;;;;;;12.18;2.20;;;16.80;82.60;;;;;;4983776;28;20468;-93
2022/11/03 13:08:43;;;;;;;10.15;1.95;;;16.80;80.50;;;;;;4975453;28;20023;-92
2022/11/03 13:13:53;;;;;;;11.88;2.15;;;17.10;80.40;;;;;;4989417;28;20029;-93
2022/11/03 13:16:19;;;;;;;8.05;1.88;;;17.20;77.60;;;;;;4975079;28;20053;-94
2022/11/03 13:18:45;;;;;;;9.88;2.17;;;17.10;77.40;;;;;;4988251;28;20023;-94
2022/11/03 13:21:12;;;;;;;9.75;2.85;;;17.20;77.30;;;;;;4970231;28;20045;-93